sensor_id;sensor_type;location;lat;lon;timestamp;pressure;altitude;pressure_sealevel;temperature;humidity
4024;BME280;2026;51.002;13.668;2023-04-16T00:04:38;98765.94;;;7.48;100.00
4024;BME280;2026;51.002;13.668;2023-04-16T00:09:41;98769.72;;;7.31;100.00
4024;BME280;2026;51.002;13.668;2023-04-16T00:14:44;98776.91;;;7.23;100.00
4024;BME280;2026;51.002;13.668;2023-04-16T00:19:48;98784.31;;;7.12;100.00
4024;BME280;2026;51.002;13.668;2023-04-16T00:24:51;98783.72;;;7.17;100.00
4024;BME280;2026;51.002;13.668;2023-04-16T00:29:54;98785.69;;;7.08;100.00
4024;BME280;2026;51.002;13.668;2023-04-16T00:34:58;98789.44;;;6.99;100.00
4024;BME280;2026;51.002;13.668;2023-04-16T00:40:01;98791.69;;;7.02;100.00
4024;BME280;2026;51.002;13.668;2023-04-16T00:45:05;98797.84;;;7.01;100.00
4024;BME280;2026;51.002;13.668;2023-04-16T00:50:10;98790.03;;;7.01;99.58
4024;BME280;2026;51.002;13.668;2023-04-16T00:55:14;98795.22;;;6.87;100.00
4024;BME280;2026;51.002;13.668;2023-04-16T01:00:19;98798.19;;;6.84;100.00
4024;BME280;2026;51.002;13.668;2023-04-16T01:05:24;98805.41;;;6.82;100.00
4024;BME280;2026;51.002;13.668;2023-04-16T01:10:27;98801.94;;;6.68;99.68
4024;BME280;2026;51.002;13.668;2023-04-16T01:15:30;98802.88;;;6.60;100.00
4024;BME280;2026;51.002;13.668;2023-04-16T01:20:35;98799.66;;;6.58;99.72
4024;BME280;2026;51.002;13.668;2023-04-16T01:25:38;98804.28;;;6.56;99.06
4024;BME280;2026;51.002;13.668;2023-04-16T01:30:41;98798.25;;;6.56;98.38
4024;BME280;2026;51.002;13.668;2023-04-16T01:35:57;98802.56;;;6.42;98.37
4024;BME280;2026;51.002;13.668;2023-04-16T01:40:59;98806.75;;;6.36;99.51
4024;BME280;2026;51.002;13.668;2023-04-16T01:46:22;98820.28;;;6.25;99.82
4024;BME280;2026;51.002;13.668;2023-04-16T01:51:30;98809.50;;;6.28;99.66
4024;BME280;2026;51.002;13.668;2023-04-16T01:56:33;98810.84;;;6.24;99.03
4024;BME280;2026;51.002;13.668;2023-04-16T02:01:36;98810.97;;;6.08;99.98
4024;BME280;2026;51.002;13.668;2023-04-16T02:06:40;98812.59;;;6.16;99.23
4024;BME280;2026;51.002;13.668;2023-04-16T02:11:43;98817.34;;;6.06;98.20
4024;BME280;2026;51.002;13.668;2023-04-16T02:16:46;98822.69;;;5.98;98.83
4024;BME280;2026;51.002;13.668;2023-04-16T02:22:09;98819.00;;;5.92;97.75
4024;BME280;2026;51.002;13.668;2023-04-16T02:27:12;98821.50;;;5.78;98.86
4024;BME280;2026;51.002;13.668;2023-04-16T02:32:15;98829.19;;;5.87;98.42
4024;BME280;2026;51.002;13.668;2023-04-16T02:37:21;98832.53;;;5.80;98.74
4024;BME280;2026;51.002;13.668;2023-04-16T02:42:26;98841.44;;;5.71;99.93
4024;BME280;2026;51.002;13.668;2023-04-16T02:47:29;98839.22;;;5.90;99.66
4024;BME280;2026;51.002;13.668;2023-04-16T02:52:33;98839.41;;;5.66;99.65
4024;BME280;2026;51.002;13.668;2023-04-16T02:57:36;98835.63;;;5.69;99.31
4024;BME280;2026;51.002;13.668;2023-04-16T03:02:39;98836.91;;;5.58;99.11
4024;BME280;2026;51.002;13.668;2023-04-16T03:07:44;98842.91;;;5.59;98.33
4024;BME280;2026;51.002;13.668;2023-04-16T03:12:48;98843.91;;;5.58;98.24
4024;BME280;2026;51.002;13.668;2023-04-16T03:17:51;98839.00;;;5.48;98.68
4024;BME280;2026;51.002;13.668;2023-04-16T03:22:56;98848.22;;;5.50;98.33
4024;BME280;2026;51.002;13.668;2023-04-16T03:27:59;98861.81;;;5.31;98.41
4024;BME280;2026;51.002;13.668;2023-04-16T03:33:04;98865.13;;;5.24;98.83
4024;BME280;2026;51.002;13.668;2023-04-16T03:38:08;98873.44;;;5.35;97.73
4024;BME280;2026;51.002;13.668;2023-04-16T03:43:12;98884.66;;;5.20;98.36
4024;BME280;2026;51.002;13.668;2023-04-16T03:48:16;98887.44;;;5.04;100.00
4024;BME280;2026;51.002;13.668;2023-04-16T03:53:21;98890.41;;;5.31;99.81
4024;BME280;2026;51.002;13.668;2023-04-16T03:58:24;98896.78;;;5.28;99.12
4024;BME280;2026;51.002;13.668;2023-04-16T04:03:27;98902.75;;;5.29;98.80
4024;BME280;2026;51.002;13.668;2023-04-16T04:08:32;98911.13;;;5.09;98.82
4024;BME280;2026;51.002;13.668;2023-04-16T04:13:37;98907.88;;;4.92;98.53
4024;BME280;2026;51.002;13.668;2023-04-16T04:18:40;98908.41;;;5.02;97.80
4024;BME280;2026;51.002;13.668;2023-04-16T04:23:46;98910.31;;;4.93;97.34
4024;BME280;2026;51.002;13.668;2023-04-16T04:28:49;98918.72;;;4.95;96.95
4024;BME280;2026;51.002;13.668;2023-04-16T04:33:52;98914.78;;;5.00;96.12
4024;BME280;2026;51.002;13.668;2023-04-16T04:38:57;98916.56;;;5.14;96.21
4024;BME280;2026;51.002;13.668;2023-04-16T04:44:01;98927.16;;;5.28;95.65
4024;BME280;2026;51.002;13.668;2023-04-16T04:49:04;98931.19;;;5.30;96.42
4024;BME280;2026;51.002;13.668;2023-04-16T04:54:08;98931.06;;;5.69;95.66
4024;BME280;2026;51.002;13.668;2023-04-16T04:59:11;98940.84;;;6.03;94.94
4024;BME280;2026;51.002;13.668;2023-04-16T05:04:15;98935.25;;;6.28;94.57
4024;BME280;2026;51.002;13.668;2023-04-16T05:09:20;98940.50;;;6.57;93.78
4024;BME280;2026;51.002;13.668;2023-04-16T05:14:23;98951.09;;;6.77;94.34
4024;BME280;2026;51.002;13.668;2023-04-16T05:19:26;98957.44;;;6.68;93.58
4024;BME280;2026;51.002;13.668;2023-04-16T05:24:30;98954.56;;;6.62;93.92
4024;BME280;2026;51.002;13.668;2023-04-16T05:29:33;98957.13;;;6.56;94.95
4024;BME280;2026;51.002;13.668;2023-04-16T05:34:36;98964.59;;;6.59;95.34
4024;BME280;2026;51.002;13.668;2023-04-16T05:39:40;98960.56;;;6.56;95.59
4024;BME280;2026;51.002;13.668;2023-04-16T05:44:43;98971.59;;;6.58;96.13
4024;BME280;2026;51.002;13.668;2023-04-16T05:49:46;98970.28;;;6.69;95.50
4024;BME280;2026;51.002;13.668;2023-04-16T05:54:50;98977.72;;;7.01;94.44
4024;BME280;2026;51.002;13.668;2023-04-16T05:59:53;98983.16;;;6.99;94.27
4024;BME280;2026;51.002;13.668;2023-04-16T06:04:56;98994.00;;;7.31;93.69
4024;BME280;2026;51.002;13.668;2023-04-16T06:10:00;99002.03;;;7.65;92.17
4024;BME280;2026;51.002;13.668;2023-04-16T06:15:04;98999.09;;;7.95;91.46
4024;BME280;2026;51.002;13.668;2023-04-16T06:20:08;99001.59;;;8.10;89.98
4024;BME280;2026;51.002;13.668;2023-04-16T06:25:13;99006.63;;;8.25;90.37
4024;BME280;2026;51.002;13.668;2023-04-16T06:30:18;99011.13;;;8.45;91.28
4024;BME280;2026;51.002;13.668;2023-04-16T06:35:21;99016.56;;;8.50;91.11
4024;BME280;2026;51.002;13.668;2023-04-16T06:40:26;99009.31;;;8.79;91.69
4024;BME280;2026;51.002;13.668;2023-04-16T06:45:29;99007.09;;;8.49;92.84
4024;BME280;2026;51.002;13.668;2023-04-16T06:50:32;99005.31;;;8.84;91.80
4024;BME280;2026;51.002;13.668;2023-04-16T06:55:36;99009.50;;;8.51;92.76
4024;BME280;2026;51.002;13.668;2023-04-16T07:00:39;99009.28;;;9.20;90.54
4024;BME280;2026;51.002;13.668;2023-04-16T07:05:42;99019.00;;;8.99;89.94
4024;BME280;2026;51.002;13.668;2023-04-16T07:10:46;99016.44;;;9.78;89.30
4024;BME280;2026;51.002;13.668;2023-04-16T07:15:49;99018.47;;;9.83;87.58
4024;BME280;2026;51.002;13.668;2023-04-16T07:20:52;99030.19;;;9.67;87.93
4024;BME280;2026;51.002;13.668;2023-04-16T07:25:56;99024.28;;;10.31;87.92
4024;BME280;2026;51.002;13.668;2023-04-16T07:31:01;99029.13;;;10.27;86.07
4024;BME280;2026;51.002;13.668;2023-04-16T07:36:04;99027.50;;;10.65;86.19
4024;BME280;2026;51.002;13.668;2023-04-16T07:41:08;99038.72;;;11.23;86.75
4024;BME280;2026;51.002;13.668;2023-04-16T07:46:11;99039.75;;;10.71;84.70
4024;BME280;2026;51.002;13.668;2023-04-16T07:51:14;99045.50;;;11.12;85.58
4024;BME280;2026;51.002;13.668;2023-04-16T07:56:19;99052.06;;;10.96;82.67
4024;BME280;2026;51.002;13.668;2023-04-16T08:01:22;99054.53;;;11.42;83.95
4024;BME280;2026;51.002;13.668;2023-04-16T08:06:25;99058.31;;;12.21;80.49
4024;BME280;2026;51.002;13.668;2023-04-16T08:11:29;99052.22;;;12.39;80.37
4024;BME280;2026;51.002;13.668;2023-04-16T08:16:32;99059.81;;;12.59;78.48
4024;BME280;2026;51.002;13.668;2023-04-16T08:21:35;99066.41;;;12.38;79.69
4024;BME280;2026;51.002;13.668;2023-04-16T08:26:39;99060.06;;;13.60;78.11
4024;BME280;2026;51.002;13.668;2023-04-16T08:31:42;99062.22;;;14.16;74.00
4024;BME280;2026;51.002;13.668;2023-04-16T08:36:45;99072.66;;;14.11;75.71
4024;BME280;2026;51.002;13.668;2023-04-16T08:41:51;99087.13;;;12.89;76.39
4024;BME280;2026;51.002;13.668;2023-04-16T08:46:56;99096.22;;;13.05;77.13
4024;BME280;2026;51.002;13.668;2023-04-16T08:52:00;99095.84;;;13.01;78.28
4024;BME280;2026;51.002;13.668;2023-04-16T08:57:10;99093.06;;;13.51;78.93
4024;BME280;2026;51.002;13.668;2023-04-16T09:02:14;99088.56;;;13.51;77.11
4024;BME280;2026;51.002;13.668;2023-04-16T09:07:18;99094.41;;;12.75;79.53
4024;BME280;2026;51.002;13.668;2023-04-16T09:12:24;99108.34;;;13.06;78.48
4024;BME280;2026;51.002;13.668;2023-04-16T09:17:27;99109.84;;;13.26;76.29
4024;BME280;2026;51.002;13.668;2023-04-16T09:22:30;99114.53;;;12.01;78.07
4024;BME280;2026;51.002;13.668;2023-04-16T09:27:35;99119.50;;;12.28;77.83
4024;BME280;2026;51.002;13.668;2023-04-16T09:32:38;99119.78;;;12.38;78.59
4024;BME280;2026;51.002;13.668;2023-04-16T09:37:41;99115.75;;;12.97;76.79
4024;BME280;2026;51.002;13.668;2023-04-16T09:42:48;99127.59;;;13.30;77.09
4024;BME280;2026;51.002;13.668;2023-04-16T09:47:51;99136.66;;;12.80;76.54
4024;BME280;2026;51.002;13.668;2023-04-16T09:52:54;99137.13;;;13.31;77.09
4024;BME280;2026;51.002;13.668;2023-04-16T09:57:59;99130.28;;;14.19;73.82
4024;BME280;2026;51.002;13.668;2023-04-16T10:03:03;99142.25;;;12.53;75.37
4024;BME280;2026;51.002;13.668;2023-04-16T10:08:11;99143.31;;;12.64;77.00
4024;BME280;2026;51.002;13.668;2023-04-16T10:13:16;99147.88;;;13.18;76.71
4024;BME280;2026;51.002;13.668;2023-04-16T10:18:20;99140.47;;;13.51;72.59
4024;BME280;2026;51.002;13.668;2023-04-16T10:23:23;99139.97;;;14.83;70.20
4024;BME280;2026;51.002;13.668;2023-04-16T10:28:28;99145.47;;;14.53;69.72
4024;BME280;2026;51.002;13.668;2023-04-16T10:33:32;99148.25;;;14.75;69.63
4024;BME280;2026;51.002;13.668;2023-04-16T10:38:40;99151.66;;;14.06;68.59
4024;BME280;2026;51.002;13.668;2023-04-16T10:43:46;99151.50;;;15.11;65.76
4024;BME280;2026;51.002;13.668;2023-04-16T10:48:51;99145.25;;;15.86;66.06
4024;BME280;2026;51.002;13.668;2023-04-16T10:53:55;99142.09;;;14.69;65.05
4024;BME280;2026;51.002;13.668;2023-04-16T10:59:02;99159.56;;;13.46;69.63
4024;BME280;2026;51.002;13.668;2023-04-16T11:04:33;99158.53;;;14.89;67.73
4024;BME280;2026;51.002;13.668;2023-04-16T11:09:50;99166.13;;;13.79;66.83
4024;BME280;2026;51.002;13.668;2023-04-16T11:14:59;99162.78;;;14.61;65.97
4024;BME280;2026;51.002;13.668;2023-04-16T11:20:03;99167.31;;;12.86;72.53
4024;BME280;2026;51.002;13.668;2023-04-16T11:25:21;99168.03;;;14.20;70.07
4024;BME280;2026;51.002;13.668;2023-04-16T11:30:30;99158.34;;;14.37;65.23
4024;BME280;2026;51.002;13.668;2023-04-16T11:35:34;99167.59;;;13.99;67.63
4024;BME280;2026;51.002;13.668;2023-04-16T11:40:37;99162.88;;;14.01;66.82
4024;BME280;2026;51.002;13.668;2023-04-16T11:45:55;99160.00;;;15.48;65.61
4024;BME280;2026;51.002;13.668;2023-04-16T11:50:59;99165.34;;;15.02;64.86
4024;BME280;2026;51.002;13.668;2023-04-16T11:56:02;99156.25;;;15.78;63.15
4024;BME280;2026;51.002;13.668;2023-04-16T12:01:07;99160.72;;;15.26;63.66
4024;BME280;2026;51.002;13.668;2023-04-16T12:06:10;99163.84;;;13.71;65.44
4024;BME280;2026;51.002;13.668;2023-04-16T12:11:13;99160.38;;;13.70;64.48
4024;BME280;2026;51.002;13.668;2023-04-16T12:16:18;99146.75;;;14.38;61.62
4024;BME280;2026;51.002;13.668;2023-04-16T12:21:22;99153.78;;;15.54;63.18
4024;BME280;2026;51.002;13.668;2023-04-16T12:26:25;99157.91;;;15.67;61.44
4024;BME280;2026;51.002;13.668;2023-04-16T12:31:36;99161.31;;;14.41;61.96
4024;BME280;2026;51.002;13.668;2023-04-16T12:36:40;99164.91;;;15.73;61.64
4024;BME280;2026;51.002;13.668;2023-04-16T12:41:43;99161.88;;;16.48;60.43
4024;BME280;2026;51.002;13.668;2023-04-16T12:46:47;99154.44;;;16.01;61.01
4024;BME280;2026;51.002;13.668;2023-04-16T12:51:50;99155.19;;;15.45;59.09
4024;BME280;2026;51.002;13.668;2023-04-16T12:56:53;99164.56;;;14.72;62.95
4024;BME280;2026;51.002;13.668;2023-04-16T13:01:59;99158.94;;;14.27;59.45
4024;BME280;2026;51.002;13.668;2023-04-16T13:07:02;99162.78;;;14.61;56.88
4024;BME280;2026;51.002;13.668;2023-04-16T13:12:06;99158.00;;;14.46;59.45
4024;BME280;2026;51.002;13.668;2023-04-16T13:17:10;99160.13;;;14.90;59.55
4024;BME280;2026;51.002;13.668;2023-04-16T13:22:13;99169.03;;;14.30;62.65
4024;BME280;2026;51.002;13.668;2023-04-16T13:27:16;99171.94;;;14.70;62.07
4024;BME280;2026;51.002;13.668;2023-04-16T13:32:21;99170.13;;;14.58;63.04
4024;BME280;2026;51.002;13.668;2023-04-16T13:37:24;99173.84;;;14.22;65.47
4024;BME280;2026;51.002;13.668;2023-04-16T13:42:27;99169.94;;;14.77;63.51
4024;BME280;2026;51.002;13.668;2023-04-16T13:47:32;99169.25;;;14.82;64.46
4024;BME280;2026;51.002;13.668;2023-04-16T13:52:35;99172.78;;;14.47;62.38
4024;BME280;2026;51.002;13.668;2023-04-16T13:57:38;99191.44;;;13.68;69.37
4024;BME280;2026;51.002;13.668;2023-04-16T14:02:43;99189.84;;;13.67;72.37
4024;BME280;2026;51.002;13.668;2023-04-16T14:07:46;99187.28;;;13.60;73.10
4024;BME280;2026;51.002;13.668;2023-04-16T14:12:49;99188.81;;;13.56;74.04
4024;BME280;2026;51.002;13.668;2023-04-16T14:17:54;99192.19;;;13.45;74.89
4024;BME280;2026;51.002;13.668;2023-04-16T14:22:57;99187.19;;;13.91;74.25
4024;BME280;2026;51.002;13.668;2023-04-16T14:28:00;99204.81;;;13.55;75.67
4024;BME280;2026;51.002;13.668;2023-04-16T14:33:05;99197.81;;;13.37;75.76
4024;BME280;2026;51.002;13.668;2023-04-16T14:38:08;99187.88;;;13.51;76.89
4024;BME280;2026;51.002;13.668;2023-04-16T14:43:11;99191.09;;;13.53;77.09
4024;BME280;2026;51.002;13.668;2023-04-16T14:48:15;99201.06;;;13.08;80.36
4024;BME280;2026;51.002;13.668;2023-04-16T14:53:18;99199.34;;;13.14;81.42
4024;BME280;2026;51.002;13.668;2023-04-16T14:58:21;99203.47;;;12.91;79.92
4024;BME280;2026;51.002;13.668;2023-04-16T15:03:26;99203.25;;;12.92;78.32
4024;BME280;2026;51.002;13.668;2023-04-16T15:08:29;99213.06;;;12.85;80.00
4024;BME280;2026;51.002;13.668;2023-04-16T15:13:32;99217.28;;;12.56;81.41
4024;BME280;2026;51.002;13.668;2023-04-16T15:18:36;99218.84;;;12.75;80.08
4024;BME280;2026;51.002;13.668;2023-04-16T15:23:39;99217.28;;;12.56;78.12
4024;BME280;2026;51.002;13.668;2023-04-16T15:28:42;99209.25;;;13.00;80.12
4024;BME280;2026;51.002;13.668;2023-04-16T15:33:46;99219.13;;;13.47;79.92
4024;BME280;2026;51.002;13.668;2023-04-16T15:38:49;99221.06;;;12.60;81.93
4024;BME280;2026;51.002;13.668;2023-04-16T15:43:52;99220.84;;;12.80;83.15
4024;BME280;2026;51.002;13.668;2023-04-16T15:48:56;99230.09;;;12.83;82.43
4024;BME280;2026;51.002;13.668;2023-04-16T15:53:59;99240.19;;;12.86;81.58
4024;BME280;2026;51.002;13.668;2023-04-16T15:59:02;99252.34;;;13.17;82.05
4024;BME280;2026;51.002;13.668;2023-04-16T16:04:07;99250.88;;;11.91;84.60
4024;BME280;2026;51.002;13.668;2023-04-16T16:09:10;99249.63;;;12.37;84.95
4024;BME280;2026;51.002;13.668;2023-04-16T16:14:13;99252.31;;;12.87;81.72
4024;BME280;2026;51.002;13.668;2023-04-16T16:19:20;99255.50;;;12.58;83.96
4024;BME280;2026;51.002;13.668;2023-04-16T16:24:23;99263.59;;;13.25;83.11
4024;BME280;2026;51.002;13.668;2023-04-16T16:29:27;99277.50;;;11.69;88.19
4024;BME280;2026;51.002;13.668;2023-04-16T16:34:32;99286.28;;;11.56;89.05
4024;BME280;2026;51.002;13.668;2023-04-16T16:39:35;99285.84;;;11.20;91.50
4024;BME280;2026;51.002;13.668;2023-04-16T16:44:39;99285.34;;;11.76;90.56
4024;BME280;2026;51.002;13.668;2023-04-16T16:49:44;99290.13;;;11.60;92.50
4024;BME280;2026;51.002;13.668;2023-04-16T16:54:47;99290.81;;;11.35;92.40
4024;BME280;2026;51.002;13.668;2023-04-16T16:59:50;99300.94;;;10.79;94.30
4024;BME280;2026;51.002;13.668;2023-04-16T17:04:54;99306.81;;;10.81;94.34
4024;BME280;2026;51.002;13.668;2023-04-16T17:09:59;99303.66;;;11.11;94.25
4024;BME280;2026;51.002;13.668;2023-04-16T17:15:07;99318.94;;;10.69;97.68
4024;BME280;2026;51.002;13.668;2023-04-16T17:20:11;99317.31;;;10.74;99.25
4024;BME280;2026;51.002;13.668;2023-04-16T17:25:14;99325.81;;;10.63;100.00
4024;BME280;2026;51.002;13.668;2023-04-16T17:30:17;99325.81;;;10.63;100.00
4024;BME280;2026;51.002;13.668;2023-04-16T17:35:22;99327.84;;;10.41;100.00
4024;BME280;2026;51.002;13.668;2023-04-16T17:40:26;99338.13;;;10.29;100.00
4024;BME280;2026;51.002;13.668;2023-04-16T17:45:28;99344.78;;;10.31;100.00
4024;BME280;2026;51.002;13.668;2023-04-16T17:50:33;99348.44;;;10.30;100.00
4024;BME280;2026;51.002;13.668;2023-04-16T17:55:39;99338.72;;;10.44;100.00
4024;BME280;2026;51.002;13.668;2023-04-16T18:00:43;99354.06;;;10.00;100.00
4024;BME280;2026;51.002;13.668;2023-04-16T18:05:47;99356.47;;;10.09;100.00
4024;BME280;2026;51.002;13.668;2023-04-16T18:10:50;99357.72;;;10.33;100.00
4024;BME280;2026;51.002;13.668;2023-04-16T18:15:55;99361.91;;;10.68;100.00
4024;BME280;2026;51.002;13.668;2023-04-16T18:20:59;99362.91;;;10.60;100.00
4024;BME280;2026;51.002;13.668;2023-04-16T18:26:03;99366.75;;;10.51;100.00
4024;BME280;2026;51.002;13.668;2023-04-16T18:31:09;99365.34;;;10.55;100.00
4024;BME280;2026;51.002;13.668;2023-04-16T18:36:14;99370.56;;;10.82;100.00
4024;BME280;2026;51.002;13.668;2023-04-16T18:41:18;99376.81;;;10.67;100.00
4024;BME280;2026;51.002;13.668;2023-04-16T18:46:21;99395.59;;;10.37;100.00
4024;BME280;2026;51.002;13.668;2023-04-16T18:51:26;99397.22;;;10.65;100.00
4024;BME280;2026;51.002;13.668;2023-04-16T18:56:29;99393.19;;;10.56;100.00
4024;BME280;2026;51.002;13.668;2023-04-16T19:01:32;99401.63;;;9.97;100.00
4024;BME280;2026;51.002;13.668;2023-04-16T19:06:36;99399.19;;;9.96;100.00
4024;BME280;2026;51.002;13.668;2023-04-16T19:11:39;99398.81;;;10.12;100.00
4024;BME280;2026;51.002;13.668;2023-04-16T19:16:42;99403.22;;;9.91;100.00
4024;BME280;2026;51.002;13.668;2023-04-16T19:21:47;99396.34;;;9.90;100.00
4024;BME280;2026;51.002;13.668;2023-04-16T19:26:50;99406.59;;;9.78;100.00
4024;BME280;2026;51.002;13.668;2023-04-16T19:31:53;99404.56;;;9.67;100.00
4024;BME280;2026;51.002;13.668;2023-04-16T19:36:57;99409.59;;;9.69;100.00
4024;BME280;2026;51.002;13.668;2023-04-16T19:42:00;99410.44;;;9.89;100.00
4024;BME280;2026;51.002;13.668;2023-04-16T19:47:03;99399.22;;;10.16;100.00
4024;BME280;2026;51.002;13.668;2023-04-16T19:52:08;99411.72;;;10.07;100.00
4024;BME280;2026;51.002;13.668;2023-04-16T19:57:11;99410.50;;;10.03;100.00
4024;BME280;2026;51.002;13.668;2023-04-16T20:02:14;99405.25;;;10.03;100.00
4024;BME280;2026;51.002;13.668;2023-04-16T20:07:19;99410.91;;;10.13;100.00
4024;BME280;2026;51.002;13.668;2023-04-16T20:12:22;99420.97;;;9.96;100.00
4024;BME280;2026;51.002;13.668;2023-04-16T20:17:25;99419.34;;;10.02;100.00
4024;BME280;2026;51.002;13.668;2023-04-16T20:22:29;99430.25;;;9.99;100.00
4024;BME280;2026;51.002;13.668;2023-04-16T20:27:32;99418.94;;;9.98;100.00
4024;BME280;2026;51.002;13.668;2023-04-16T20:32:35;99419.75;;;10.05;100.00
4024;BME280;2026;51.002;13.668;2023-04-16T20:37:40;99416.34;;;10.12;100.00
4024;BME280;2026;51.002;13.668;2023-04-16T20:42:43;99410.91;;;10.00;100.00
4024;BME280;2026;51.002;13.668;2023-04-16T20:47:47;99423.81;;;10.22;100.00
4024;BME280;2026;51.002;13.668;2023-04-16T20:52:51;99420.19;;;10.16;100.00
4024;BME280;2026;51.002;13.668;2023-04-16T20:57:54;99427.22;;;10.02;100.00
4024;BME280;2026;51.002;13.668;2023-04-16T21:02:57;99429.03;;;10.15;100.00
4024;BME280;2026;51.002;13.668;2023-04-16T21:08:02;99427.03;;;10.10;100.00
4024;BME280;2026;51.002;13.668;2023-04-16T21:13:05;99427.94;;;9.75;100.00
4024;BME280;2026;51.002;13.668;2023-04-16T21:18:08;99436.47;;;9.49;100.00
4024;BME280;2026;51.002;13.668;2023-04-16T21:23:13;99428.00;;;9.40;100.00
4024;BME280;2026;51.002;13.668;2023-04-16T21:28:16;99428.28;;;9.52;100.00
4024;BME280;2026;51.002;13.668;2023-04-16T21:33:19;99426.00;;;9.49;100.00
4024;BME280;2026;51.002;13.668;2023-04-16T21:38:23;99425.28;;;9.62;100.00
4024;BME280;2026;51.002;13.668;2023-04-16T21:43:26;99437.56;;;9.26;100.00
4024;BME280;2026;51.002;13.668;2023-04-16T21:48:31;99432.34;;;9.26;100.00
4024;BME280;2026;51.002;13.668;2023-04-16T21:53:35;99428.09;;;9.60;100.00
4024;BME280;2026;51.002;13.668;2023-04-16T21:58:39;99430.41;;;9.42;100.00
4024;BME280;2026;51.002;13.668;2023-04-16T22:03:42;99432.56;;;9.31;100.00
4024;BME280;2026;51.002;13.668;2023-04-16T22:08:49;99436.78;;;9.26;100.00
4024;BME280;2026;51.002;13.668;2023-04-16T22:13:52;99432.66;;;9.09;100.00
4024;BME280;2026;51.002;13.668;2023-04-16T22:18:58;99433.84;;;9.07;100.00
4024;BME280;2026;51.002;13.668;2023-04-16T22:24:02;99437.91;;;9.16;100.00
4024;BME280;2026;51.002;13.668;2023-04-16T22:29:05;99428.38;;;9.44;100.00
4024;BME280;2026;51.002;13.668;2023-04-16T22:34:08;99434.50;;;9.16;100.00
4024;BME280;2026;51.002;13.668;2023-04-16T22:39:13;99428.38;;;9.44;100.00
4024;BME280;2026;51.002;13.668;2023-04-16T22:44:16;99433.09;;;9.20;100.00
4024;BME280;2026;51.002;13.668;2023-04-16T22:49:19;99431.50;;;9.54;100.00
4024;BME280;2026;51.002;13.668;2023-04-16T22:54:26;99421.44;;;9.16;100.00
4024;BME280;2026;51.002;13.668;2023-04-16T22:59:29;99430.69;;;9.18;100.00
4024;BME280;2026;51.002;13.668;2023-04-16T23:04:32;99423.63;;;9.12;100.00
4024;BME280;2026;51.002;13.668;2023-04-16T23:09:37;99429.59;;;8.99;100.00
4024;BME280;2026;51.002;13.668;2023-04-16T23:14:40;99439.47;;;8.75;100.00
4024;BME280;2026;51.002;13.668;2023-04-16T23:19:46;99435.88;;;8.76;100.00
4024;BME280;2026;51.002;13.668;2023-04-16T23:24:50;99432.78;;;8.66;100.00
4024;BME280;2026;51.002;13.668;2023-04-16T23:29:53;99436.88;;;8.75;100.00
4024;BME280;2026;51.002;13.668;2023-04-16T23:34:56;99433.19;;;8.98;100.00
4024;BME280;2026;51.002;13.668;2023-04-16T23:40:01;99430.66;;;9.12;100.00
4024;BME280;2026;51.002;13.668;2023-04-16T23:45:05;99439.00;;;8.93;100.00
4024;BME280;2026;51.002;13.668;2023-04-16T23:50:08;99426.84;;;8.79;100.00
4024;BME280;2026;51.002;13.668;2023-04-16T23:55:13;99432.00;;;8.72;100.00
